Time;durP1;ratioP1;P1;durP2;ratioP2;P2;SDS_P1;SDS_P2;PMS_P1;PMS_P2;Temp;Humidity;BMP_temperature;BMP_pressure;BME280_temperature;BME280_humidity;BME280_pressure;Samples;Min_cycle;Max_cycle;Signal;HPM_P1;HPM_P2
2022/12/28 00:01:44;;;;;;;1.60;1.30;;;6.20;98.20;;;;;;5040756;28;20490;-76
2022/12/28 00:04:14;;;;;;;1.60;1.30;;;6.30;98.20;;;;;;5053759;28;20975;-75
2022/12/28 00:06:41;;;;;;;1.60;1.30;;;6.30;98.20;;;;;;5040421;28;20574;-76
2022/12/28 00:09:10;;;;;;;1.70;1.50;;;6.30;98.20;;;;;;5053061;28;20466;-75
2022/12/28 00:11:37;;;;;;;1.70;1.40;;;6.30;98.20;;;;;;5040997;28;20487;-73
2022/12/28 00:14:04;;;;;;;1.60;1.30;;;6.30;98.20;;;;;;5048985;28;20913;-76
2022/12/28 00:16:36;;;;;;;1.60;1.30;;;6.30;98.20;;;;;;5039656;28;20869;-76
2022/12/28 00:19:05;;;;;;;1.63;1.30;;;6.30;98.20;;;;;;5053831;28;20876;-76
2022/12/28 00:21:34;;;;;;;1.63;1.30;;;6.30;98.20;;;;;;5052280;28;20483;-75
2022/12/28 00:24:02;;;;;;;1.70;1.33;;;6.40;98.20;;;;;;5065377;28;20454;-74
2022/12/28 00:26:31;;;;;;;1.70;1.40;;;6.40;98.20;;;;;;5037368;28;20504;-74
2022/12/28 00:28:59;;;;;;;1.63;1.30;;;6.40;98.20;;;;;;5045389;28;20458;-75
2022/12/28 00:31:26;;;;;;;1.63;1.30;;;6.40;98.20;;;;;;5039526;28;20465;-76
2022/12/28 00:33:54;;;;;;;1.70;1.30;;;6.50;98.20;;;;;;5054493;28;20497;-76
2022/12/28 00:36:21;;;;;;;1.67;1.30;;;6.50;98.20;;;;;;5033896;28;20482;-78
2022/12/28 00:38:48;;;;;;;1.67;1.30;;;6.50;98.20;;;;;;5053767;28;20462;-79
2022/12/28 00:41:14;;;;;;;1.60;1.30;;;6.40;98.20;;;;;;5045438;28;20496;-77
2022/12/28 00:43:41;;;;;;;1.63;1.30;;;6.40;98.20;;;;;;5057966;28;20462;-77
2022/12/28 00:46:09;;;;;;;1.70;1.40;;;6.40;98.20;;;;;;5038415;28;20486;-78
2022/12/28 00:48:37;;;;;;;1.60;1.30;;;6.40;98.20;;;;;;5056391;28;20466;-78
2022/12/28 00:51:08;;;;;;;1.70;1.40;;;6.40;98.20;;;;;;5038622;28;20840;-78
2022/12/28 00:53:34;;;;;;;1.60;1.30;;;6.40;98.20;;;;;;5048577;28;21037;-78
2022/12/28 00:56:06;;;;;;;1.63;1.30;;;6.40;98.20;;;;;;5039217;28;20486;-79
2022/12/28 00:58:34;;;;;;;1.60;1.30;;;6.40;98.20;;;;;;5057741;28;20963;-77
2022/12/28 01:01:02;;;;;;;1.60;1.30;;;6.40;98.20;;;;;;5039140;28;20996;-77
2022/12/28 01:03:29;;;;;;;1.60;1.20;;;6.50;98.20;;;;;;5059433;28;20458;-77
2022/12/28 01:05:56;;;;;;;1.60;1.30;;;6.50;98.20;;;;;;5037096;28;20772;-76
2022/12/28 01:08:24;;;;;;;1.60;1.30;;;6.50;98.20;;;;;;5062259;28;20484;-77
2022/12/28 01:10:51;;;;;;;1.70;1.43;;;6.50;98.20;;;;;;5043373;28;20522;-78
2022/12/28 01:13:19;;;;;;;1.67;1.30;;;6.50;98.20;;;;;;5060435;28;21013;-79
2022/12/28 01:15:46;;;;;;;1.60;1.30;;;6.50;98.20;;;;;;5047391;28;21064;-79
2022/12/28 01:18:13;;;;;;;1.63;1.30;;;6.60;98.20;;;;;;5022749;28;20481;-78
2022/12/28 01:20:40;;;;;;;2.47;2.27;;;6.60;98.20;;;;;;5048999;28;20461;-79
2022/12/28 01:23:07;;;;;;;1.70;1.50;;;6.60;98.20;;;;;;5039014;28;20509;-77
2022/12/28 01:25:36;;;;;;;1.70;1.50;;;6.60;98.20;;;;;;5044657;28;20501;-78
2022/12/28 01:28:05;;;;;;;1.60;1.30;;;6.70;98.20;;;;;;5049159;28;20821;-77
2022/12/28 01:30:32;;;;;;;1.70;1.40;;;6.70;98.20;;;;;;5047093;28;20485;-77
2022/12/28 01:33:09;;;;;;;1.70;1.43;;;6.70;98.20;;;;;;5047449;28;20992;-79
2022/12/28 01:35:36;;;;;;;1.60;1.20;;;6.70;98.20;;;;;;5045693;28;20469;-77
2022/12/28 01:38:03;;;;;;;1.70;1.40;;;6.70;98.20;;;;;;5049291;28;20572;-77
2022/12/28 01:40:30;;;;;;;1.60;1.30;;;6.70;98.20;;;;;;5046837;28;20733;-76
2022/12/28 01:42:58;;;;;;;1.70;1.40;;;6.80;98.20;;;;;;5049359;28;20480;-77
2022/12/28 01:45:25;;;;;;;1.60;1.30;;;6.80;98.20;;;;;;5046803;28;20454;-78
2022/12/28 01:47:54;;;;;;;1.60;1.27;;;6.80;98.20;;;;;;5038584;28;20484;-77
2022/12/28 01:50:26;;;;;;;1.60;1.30;;;6.80;98.20;;;;;;5045656;28;20532;-77
2022/12/28 01:52:55;;;;;;;1.60;1.30;;;6.90;98.20;;;;;;5038895;28;20880;-76
2022/12/28 01:55:27;;;;;;;1.60;1.20;;;6.90;98.20;;;;;;5044146;28;20489;-78
2022/12/28 01:58:00;;;;;;;1.63;1.30;;;6.90;98.20;;;;;;5048631;28;21187;-77
2022/12/28 02:00:28;;;;;;;1.60;1.23;;;6.90;98.20;;;;;;5045782;28;20458;-78
2022/12/28 02:02:59;;;;;;;1.70;1.30;;;7.00;98.20;;;;;;5031604;28;21009;-76
2022/12/28 02:05:29;;;;;;;1.60;1.30;;;7.00;98.20;;;;;;5044327;28;20537;-76
2022/12/28 02:08:03;;;;;;;1.63;1.30;;;7.00;98.20;;;;;;5048621;28;20528;-76
2022/12/28 02:10:33;;;;;;;1.70;1.40;;;7.00;98.20;;;;;;5050275;28;20462;-75
2022/12/28 02:13:02;;;;;;;1.67;1.30;;;7.10;98.20;;;;;;5047973;28;20520;-76
2022/12/28 02:15:29;;;;;;;1.70;1.40;;;7.10;98.20;;;;;;5066548;28;20491;-77
2022/12/28 02:17:57;;;;;;;1.63;1.30;;;7.10;98.20;;;;;;5043645;28;20571;-75
2022/12/28 02:20:30;;;;;;;1.60;1.30;;;7.10;98.20;;;;;;5056700;28;20458;-76
2022/12/28 02:23:18;;;;;;;1.70;1.43;;;7.10;98.20;;;;;;5051082;28;20473;-75
2022/12/28 02:26:11;;;;;;;1.67;1.30;;;7.10;98.20;;;;;;5051929;28;20493;-76
2022/12/28 02:29:16;;;;;;;1.70;1.40;;;7.10;98.20;;;;;;5011588;28;20473;-77
2022/12/28 02:31:49;;;;;;;1.70;1.37;;;7.10;98.20;;;;;;5041254;28;20477;-78
2022/12/28 02:34:24;;;;;;;1.63;1.30;;;7.20;98.20;;;;;;5056618;28;20488;-76
2022/12/28 02:39:46;;;;;;;1.63;1.30;;;7.20;98.20;;;;;;5051054;28;20493;-76
2022/12/28 02:42:16;;;;;;;1.70;1.30;;;7.20;98.20;;;;;;5037150;28;20583;-76
2022/12/28 02:50:17;;;;;;;1.70;1.30;;;7.30;98.20;;;;;;5047006;28;20642;-76
2022/12/28 02:53:23;;;;;;;1.60;1.30;;;7.30;98.20;;;;;;5045026;28;20529;-77
2022/12/28 02:56:06;;;;;;;1.63;1.30;;;7.40;98.20;;;;;;5038583;28;20997;-78
2022/12/28 02:58:55;;;;;;;1.70;1.30;;;7.40;98.20;;;;;;5050734;28;21040;-76
2022/12/28 03:01:34;;;;;;;1.60;1.30;;;7.40;98.20;;;;;;5040984;28;20471;-76
2022/12/28 03:04:11;;;;;;;1.67;1.30;;;7.40;98.20;;;;;;5056728;28;20449;-76
2022/12/28 03:09:34;;;;;;;1.67;1.33;;;7.50;98.20;;;;;;5058623;28;20947;-75
2022/12/28 03:12:06;;;;;;;1.67;1.30;;;7.50;98.20;;;;;;5052441;28;20504;-76
2022/12/28 03:14:39;;;;;;;1.63;1.30;;;7.50;98.20;;;;;;5054144;28;20506;-75
2022/12/28 03:31:13;;;;;;;1.70;1.30;;;7.60;98.20;;;;;;5037673;28;20743;-75
2022/12/28 03:33:45;;;;;;;1.60;1.20;;;7.60;98.20;;;;;;5061553;28;20515;-75
2022/12/28 03:36:17;;;;;;;1.63;1.30;;;7.70;98.20;;;;;;5031813;28;20486;-75
2022/12/28 03:38:53;;;;;;;1.70;1.30;;;7.70;98.20;;;;;;5056379;28;20457;-75
2022/12/28 03:41:28;;;;;;;1.60;1.20;;;7.70;98.20;;;;;;5052868;28;20920;-75
2022/12/28 03:43:59;;;;;;;1.63;1.30;;;7.70;98.20;;;;;;5047338;28;20457;-76
2022/12/28 03:46:30;;;;;;;1.60;1.30;;;7.70;98.20;;;;;;5036647;28;20481;-75
2022/12/28 03:49:00;;;;;;;1.60;1.20;;;7.70;98.20;;;;;;5062346;28;20557;-75
2022/12/28 03:51:30;;;;;;;1.60;1.20;;;7.70;98.20;;;;;;5054880;28;20485;-75
2022/12/28 03:53:57;;;;;;;1.67;1.30;;;7.70;98.20;;;;;;5063396;28;20474;-75
2022/12/28 03:56:26;;;;;;;1.67;1.30;;;7.80;98.20;;;;;;5045317;28;20579;-75
2022/12/28 03:58:53;;;;;;;1.63;1.20;;;7.80;98.20;;;;;;5060059;28;20461;-75
2022/12/28 04:01:20;;;;;;;1.63;1.30;;;7.80;98.20;;;;;;5050167;28;21091;-75
2022/12/28 04:03:47;;;;;;;1.60;1.30;;;7.80;98.20;;;;;;5064184;28;20874;-75
2022/12/28 04:06:17;;;;;;;1.63;1.30;;;7.80;98.20;;;;;;5051279;28;20920;-76
2022/12/28 04:08:45;;;;;;;1.63;1.30;;;7.80;98.20;;;;;;5060369;28;20473;-76
2022/12/28 04:11:12;;;;;;;2.67;2.47;;;7.80;98.20;;;;;;5048570;28;20477;-75
2022/12/28 04:13:39;;;;;;;1.67;1.30;;;7.80;98.20;;;;;;5049909;28;20466;-74
2022/12/28 04:16:09;;;;;;;1.60;1.20;;;7.90;98.20;;;;;;5030644;28;20494;-75
2022/12/28 04:18:36;;;;;;;1.60;1.30;;;7.90;98.20;;;;;;5056750;28;20947;-75
2022/12/28 04:21:02;;;;;;;1.60;1.20;;;7.90;98.20;;;;;;5035565;28;20469;-76
2022/12/28 04:23:32;;;;;;;1.63;1.20;;;7.90;98.20;;;;;;5055295;28;20488;-75
2022/12/28 04:26:01;;;;;;;1.63;1.30;;;7.90;98.20;;;;;;5023220;28;21385;-75
2022/12/28 04:28:29;;;;;;;1.60;1.20;;;7.90;98.20;;;;;;5068346;22;20520;-73
2022/12/28 04:30:57;;;;;;;1.60;1.30;;;7.90;98.20;;;;;;5035569;28;20486;-74
2022/12/28 04:33:24;;;;;;;1.60;1.30;;;8.00;98.20;;;;;;5026854;28;20459;-73
2022/12/28 04:35:51;;;;;;;1.60;1.30;;;8.00;98.20;;;;;;5032874;28;20850;-73
2022/12/28 04:38:18;;;;;;;1.60;1.20;;;8.00;98.20;;;;;;5029806;28;20840;-74
2022/12/28 04:40:47;;;;;;;1.63;1.27;;;8.00;98.20;;;;;;5035696;28;20485;-75
2022/12/28 04:43:13;;;;;;;1.60;1.20;;;8.00;98.20;;;;;;5014634;28;20481;-74
2022/12/28 04:45:40;;;;;;;1.67;1.30;;;8.00;98.20;;;;;;5039379;28;20458;-73
2022/12/28 04:48:07;;;;;;;1.60;1.30;;;8.00;98.20;;;;;;5013394;28;21011;-73
2022/12/28 04:50:33;;;;;;;1.63;1.20;;;8.00;98.20;;;;;;5045287;28;20473;-75
2022/12/28 04:53:00;;;;;;;1.63;1.20;;;8.00;98.20;;;;;;5025739;28;20478;-74
2022/12/28 04:55:27;;;;;;;1.60;1.23;;;8.10;98.20;;;;;;5031296;28;20487;-73
2022/12/28 04:57:55;;;;;;;1.60;1.30;;;8.10;98.20;;;;;;5018480;28;20502;-76
2022/12/28 05:00:22;;;;;;;1.60;1.30;;;8.20;98.20;;;;;;5040275;28;20459;-76
2022/12/28 05:02:48;;;;;;;1.60;1.30;;;8.20;98.20;;;;;;5018527;28;20487;-76
2022/12/28 05:05:15;;;;;;;1.67;1.30;;;8.30;98.20;;;;;;5035277;28;20466;-75
2022/12/28 05:07:42;;;;;;;1.90;1.70;;;8.30;98.20;;;;;;5030002;28;20489;-76
2022/12/28 05:10:09;;;;;;;1.63;1.30;;;8.40;98.20;;;;;;5049212;28;20458;-78
2022/12/28 05:12:36;;;;;;;1.60;1.30;;;8.40;98.20;;;;;;5019401;28;20494;-77
2022/12/28 05:15:05;;;;;;;1.70;1.40;;;8.50;98.20;;;;;;5033904;28;20487;-76
2022/12/28 05:17:32;;;;;;;1.63;1.30;;;8.60;98.20;;;;;;5014777;28;20486;-77
2022/12/28 05:19:59;;;;;;;1.63;1.30;;;8.60;98.20;;;;;;5037914;28;20463;-77
2022/12/28 05:22:25;;;;;;;1.67;1.23;;;8.70;98.20;;;;;;5014433;28;20490;-75
2022/12/28 05:24:52;;;;;;;1.70;1.30;;;8.80;98.20;;;;;;5034717;28;20451;-77
2022/12/28 05:27:19;;;;;;;1.60;1.30;;;8.90;98.20;;;;;;5026867;28;20478;-80
2022/12/28 05:29:46;;;;;;;1.60;1.20;;;8.90;98.20;;;;;;5036954;28;20821;-76
2022/12/28 05:32:14;;;;;;;1.60;1.20;;;9.00;98.20;;;;;;5015518;28;20479;-77
2022/12/28 05:34:41;;;;;;;1.63;1.27;;;9.00;98.20;;;;;;5034695;28;20625;-78
2022/12/28 05:37:08;;;;;;;1.70;1.23;;;9.00;98.20;;;;;;5022610;28;20486;-75
2022/12/28 05:39:35;;;;;;;1.70;1.30;;;9.10;98.20;;;;;;5036556;28;20937;-77
2022/12/28 05:42:01;;;;;;;1.63;1.20;;;9.10;98.20;;;;;;5022299;28;20825;-76
2022/12/28 05:44:29;;;;;;;1.70;1.33;;;9.10;98.20;;;;;;5034768;28;20459;-75
2022/12/28 05:46:56;;;;;;;1.67;1.20;;;9.10;98.20;;;;;;5024966;28;20891;-76
2022/12/28 05:49:24;;;;;;;1.60;1.20;;;9.20;98.20;;;;;;5044674;28;20479;-75
2022/12/28 05:51:51;;;;;;;1.60;1.20;;;9.20;98.20;;;;;;5014173;28;20484;-79
2022/12/28 05:54:18;;;;;;;1.63;1.20;;;9.30;98.20;;;;;;5035164;28;20455;-76
2022/12/28 05:56:50;;;;;;;1.70;1.33;;;9.30;98.20;;;;;;5016391;28;20480;-76
2022/12/28 05:59:17;;;;;;;1.63;1.20;;;9.30;98.20;;;;;;5036235;28;20517;-77
2022/12/28 06:01:44;;;;;;;1.63;1.20;;;9.40;98.20;;;;;;5025161;28;20543;-75
2022/12/28 06:04:15;;;;;;;1.60;1.20;;;9.40;98.20;;;;;;5037118;28;20458;-76
2022/12/28 06:06:45;;;;;;;1.60;1.20;;;9.40;98.20;;;;;;5026549;28;20503;-74
2022/12/28 06:09:12;;;;;;;1.70;1.40;;;9.50;98.20;;;;;;5038212;28;20488;-75
2022/12/28 06:11:39;;;;;;;1.67;1.30;;;9.50;98.20;;;;;;5031076;28;20498;-77
2022/12/28 06:14:06;;;;;;;2.43;2.23;;;9.50;98.20;;;;;;5038656;28;20466;-79
2022/12/28 06:16:34;;;;;;;1.60;1.20;;;9.60;98.20;;;;;;5031431;28;20486;-76
2022/12/28 06:19:05;;;;;;;1.70;1.23;;;9.60;98.20;;;;;;5039571;28;20486;-75
2022/12/28 06:21:33;;;;;;;1.60;1.20;;;9.60;98.20;;;;;;5035223;28;20589;-76
2022/12/28 06:24:03;;;;;;;1.60;1.20;;;9.60;98.20;;;;;;5045448;28;20462;-74
2022/12/28 06:26:31;;;;;;;1.67;1.20;;;9.60;98.20;;;;;;5032418;28;20570;-78
2022/12/28 06:29:00;;;;;;;1.60;1.20;;;9.60;98.20;;;;;;5044946;28;20579;-77
2022/12/28 06:31:29;;;;;;;1.60;1.10;;;9.60;98.20;;;;;;5029912;28;20561;-75
2022/12/28 06:33:59;;;;;;;1.60;1.20;;;9.60;98.20;;;;;;5030400;28;20459;-77
2022/12/28 06:36:27;;;;;;;1.60;1.10;;;9.70;98.20;;;;;;5036371;28;20871;-77
2022/12/28 06:38:56;;;;;;;1.60;1.20;;;9.70;98.20;;;;;;5045042;28;20494;-76
2022/12/28 06:41:25;;;;;;;1.63;1.30;;;9.70;98.20;;;;;;5034474;28;20481;-75
2022/12/28 06:43:52;;;;;;;1.60;1.20;;;9.70;98.20;;;;;;5042477;28;20507;-77
2022/12/28 06:46:20;;;;;;;1.63;1.20;;;9.70;98.20;;;;;;5032602;28;20481;-75
2022/12/28 06:48:47;;;;;;;1.60;1.20;;;9.70;98.20;;;;;;5029394;28;20485;-77
2022/12/28 06:51:16;;;;;;;1.60;1.20;;;9.70;98.20;;;;;;5031817;28;20479;-76
2022/12/28 06:53:43;;;;;;;1.63;1.20;;;9.70;98.20;;;;;;5027509;28;20454;-75
2022/12/28 06:56:13;;;;;;;1.63;1.20;;;9.70;98.20;;;;;;5026491;28;20489;-76
2022/12/28 06:58:41;;;;;;;1.60;1.20;;;9.70;98.20;;;;;;5028414;28;20482;-75
2022/12/28 07:01:11;;;;;;;1.70;1.20;;;9.70;98.20;;;;;;5032745;28;20536;-75
2022/12/28 07:03:38;;;;;;;1.70;1.33;;;9.70;98.20;;;;;;5024231;28;21094;-77
2022/12/28 07:06:06;;;;;;;1.60;1.20;;;9.70;98.20;;;;;;5031240;28;20458;-74
2022/12/28 07:08:33;;;;;;;1.60;1.10;;;9.70;98.20;;;;;;5048147;28;20474;-76
2022/12/28 07:11:04;;;;;;;1.60;1.20;;;9.70;98.20;;;;;;5031449;28;20559;-76
2022/12/28 07:13:31;;;;;;;1.60;1.10;;;9.70;98.20;;;;;;5031800;28;20478;-76
2022/12/28 07:16:02;;;;;;;1.60;1.20;;;9.70;98.20;;;;;;5033325;28;20493;-76
2022/12/28 07:18:29;;;;;;;1.60;1.20;;;9.70;98.20;;;;;;5025690;28;20482;-77
2022/12/28 07:21:00;;;;;;;1.67;1.20;;;9.70;98.20;;;;;;5031694;28;20471;-77
2022/12/28 07:23:29;;;;;;;1.60;1.20;;;9.70;98.20;;;;;;5019160;28;20485;-76
2022/12/28 07:25:56;;;;;;;1.60;1.20;;;9.70;98.20;;;;;;5032207;28;20459;-75
2022/12/28 07:28:42;;;;;;;1.60;1.17;;;9.70;98.20;;;;;;5025659;28;21010;-74
2022/12/28 07:31:12;;;;;;;1.60;1.20;;;9.60;98.20;;;;;;5031528;28;21027;-76
2022/12/28 07:33:40;;;;;;;1.60;1.20;;;9.60;98.20;;;;;;5027798;28;20549;-78
2022/12/28 07:36:10;;;;;;;1.60;1.20;;;9.60;98.20;;;;;;5031023;28;20500;-78
2022/12/28 07:38:37;;;;;;;1.70;1.20;;;9.60;98.20;;;;;;5026385;28;20482;-77
2022/12/28 07:41:05;;;;;;;1.60;1.20;;;9.60;98.20;;;;;;5030920;28;21143;-77
2022/12/28 07:43:33;;;;;;;1.60;1.13;;;9.60;98.20;;;;;;5021430;28;20462;-77
2022/12/28 07:46:01;;;;;;;3.70;2.90;;;9.60;98.20;;;;;;5032530;28;20465;-76
2022/12/28 07:48:31;;;;;;;1.60;1.20;;;9.70;98.20;;;;;;5043849;28;20483;-76
2022/12/28 07:51:04;;;;;;;1.60;1.20;;;9.70;98.20;;;;;;5037695;28;20549;-75
2022/12/28 07:53:31;;;;;;;1.60;1.20;;;9.70;98.20;;;;;;5039803;28;20469;-77
2022/12/28 07:55:58;;;;;;;1.63;1.17;;;9.70;98.20;;;;;;5034508;28;20485;-77
2022/12/28 07:58:26;;;;;;;1.60;1.10;;;9.70;98.20;;;;;;5043158;28;20552;-76
2022/12/28 08:00:55;;;;;;;1.60;1.20;;;9.70;98.20;;;;;;5034912;28;21054;-76
2022/12/28 08:03:21;;;;;;;1.60;1.20;;;9.80;98.20;;;;;;5045225;28;20541;-76
2022/12/28 08:05:50;;;;;;;1.60;1.20;;;9.80;98.20;;;;;;5031816;28;21010;-76
2022/12/28 08:08:17;;;;;;;1.60;1.20;;;9.80;98.20;;;;;;5016141;28;21478;-75
2022/12/28 08:10:44;;;;;;;1.60;1.20;;;9.80;98.20;;;;;;5038350;28;20456;-75
2022/12/28 08:13:10;;;;;;;1.60;1.10;;;9.80;98.20;;;;;;5008247;28;20477;-76
2022/12/28 08:15:43;;;;;;;1.63;1.20;;;9.90;98.20;;;;;;5043228;28;20490;-74
2022/12/28 08:18:28;;;;;;;1.63;1.20;;;9.90;98.20;;;;;;5030462;28;20856;-74
2022/12/28 08:21:01;;;;;;;1.60;1.10;;;9.90;98.20;;;;;;5031920;28;20462;-77
2022/12/28 08:23:31;;;;;;;1.60;1.10;;;9.90;98.20;;;;;;5021606;28;20454;-75
2022/12/28 08:26:07;;;;;;;1.60;1.20;;;9.90;98.20;;;;;;5031979;28;20462;-74
2022/12/28 08:28:35;;;;;;;1.60;1.13;;;10.00;98.20;;;;;;5042971;28;20496;-76
2022/12/28 08:31:06;;;;;;;1.60;1.20;;;10.00;98.20;;;;;;5033288;28;20459;-76
2022/12/28 08:33:33;;;;;;;1.70;1.30;;;10.00;98.20;;;;;;5025357;28;20471;-74
2022/12/28 08:36:01;;;;;;;1.60;1.20;;;10.00;98.20;;;;;;5033488;28;20478;-77
2022/12/28 08:38:28;;;;;;;1.60;1.20;;;10.10;98.20;;;;;;5042595;28;20489;-79
2022/12/28 08:40:55;;;;;;;1.63;1.20;;;10.10;98.20;;;;;;5033073;28;20957;-74
2022/12/28 08:43:22;;;;;;;1.67;1.23;;;10.10;98.20;;;;;;5030841;28;20467;-78
2022/12/28 08:45:57;;;;;;;1.60;1.20;;;10.10;98.20;;;;;;5030881;28;20834;-73
2022/12/28 08:48:24;;;;;;;1.60;1.10;;;10.20;98.20;;;;;;5038490;28;20711;-77
2022/12/28 08:50:50;;;;;;;1.60;1.20;;;10.20;98.20;;;;;;5032690;28;20959;-78
2022/12/28 08:53:19;;;;;;;1.60;1.20;;;10.20;98.20;;;;;;5018720;28;20458;-76
2022/12/28 08:55:45;;;;;;;1.60;1.10;;;10.20;98.20;;;;;;5043948;28;20478;-77
2022/12/28 08:58:12;;;;;;;1.60;1.20;;;10.30;98.20;;;;;;5027840;28;20487;-79
2022/12/28 09:00:39;;;;;;;1.60;1.20;;;10.30;98.20;;;;;;5044135;28;20486;-77
2022/12/28 09:03:05;;;;;;;1.60;1.20;;;10.30;98.20;;;;;;5005828;28;21095;-73
2022/12/28 09:05:32;;;;;;;1.60;1.20;;;10.30;98.20;;;;;;5039688;28;20963;-76
2022/12/28 09:07:59;;;;;;;1.60;1.10;;;10.40;98.20;;;;;;5015083;28;20530;-76
2022/12/28 09:10:27;;;;;;;1.60;1.20;;;10.40;98.20;;;;;;5040146;28;20458;-77
2022/12/28 09:12:54;;;;;;;1.67;1.20;;;10.40;98.20;;;;;;5027334;28;20581;-77
2022/12/28 09:15:21;;;;;;;1.70;1.20;;;10.40;98.20;;;;;;5042432;28;20469;-75
2022/12/28 09:17:48;;;;;;;1.60;1.20;;;10.50;98.20;;;;;;5004210;28;20941;-75
2022/12/28 09:20:14;;;;;;;1.60;1.20;;;10.50;98.20;;;;;;5039912;28;20471;-75
2022/12/28 09:22:41;;;;;;;1.60;1.20;;;10.50;98.20;;;;;;5014416;28;20487;-76
2022/12/28 09:25:08;;;;;;;1.67;1.20;;;10.50;98.20;;;;;;5038385;28;20517;-75
2022/12/28 09:27:37;;;;;;;1.60;1.20;;;10.60;98.20;;;;;;5008277;28;21157;-75
2022/12/28 09:30:04;;;;;;;1.60;1.10;;;10.60;98.20;;;;;;5040488;28;20462;-76
2022/12/28 09:32:31;;;;;;;1.70;1.30;;;10.60;98.20;;;;;;5029893;28;20489;-75
2022/12/28 09:34:58;;;;;;;1.63;1.17;;;10.60;98.20;;;;;;5036886;28;20475;-78
2022/12/28 09:37:24;;;;;;;1.63;1.20;;;10.60;98.20;;;;;;5006778;28;20542;-77
2022/12/28 09:39:51;;;;;;;1.60;1.13;;;10.60;98.20;;;;;;5036543;28;20474;-74
2022/12/28 09:42:22;;;;;;;1.63;1.17;;;10.70;98.20;;;;;;5010863;28;20559;-75
2022/12/28 09:44:59;;;;;;;1.60;1.17;;;10.70;98.20;;;;;;5034283;28;20458;-75
2022/12/28 09:47:36;;;;;;;1.60;1.10;;;10.70;98.20;;;;;;5008193;28;20567;-77
2022/12/28 09:50:27;;;;;;;1.60;1.20;;;10.70;98.20;;;;;;5038507;28;20468;-77
2022/12/28 09:53:03;;;;;;;1.60;1.13;;;10.70;98.20;;;;;;5006699;28;21055;-74
2022/12/28 09:55:31;;;;;;;1.60;1.20;;;10.70;98.20;;;;;;5044998;28;20463;-77
2022/12/28 09:57:59;;;;;;;1.60;1.20;;;10.80;98.20;;;;;;5017612;28;20506;-74
2022/12/28 10:00:33;;;;;;;1.63;1.10;;;10.80;98.20;;;;;;5043187;28;20469;-77
2022/12/28 10:03:03;;;;;;;1.60;1.10;;;10.90;98.20;;;;;;5009185;28;20486;-75
2022/12/28 10:05:30;;;;;;;1.70;1.20;;;10.90;98.20;;;;;;5047253;28;20801;-78
2022/12/28 10:07:58;;;;;;;1.60;1.20;;;11.00;98.20;;;;;;5007728;28;20495;-75
2022/12/28 10:10:26;;;;;;;1.67;1.20;;;11.00;98.20;;;;;;5041907;28;20835;-74
2022/12/28 10:12:54;;;;;;;1.60;1.10;;;11.10;98.20;;;;;;5028694;28;20490;-75
2022/12/28 10:15:22;;;;;;;1.60;1.10;;;11.10;98.20;;;;;;5046705;28;20481;-76
2022/12/28 10:17:51;;;;;;;1.60;1.10;;;11.10;98.20;;;;;;5032215;28;20478;-77
2022/12/28 10:20:20;;;;;;;1.60;1.10;;;11.10;98.20;;;;;;5045440;28;20466;-74
2022/12/28 10:22:51;;;;;;;1.60;1.10;;;11.10;98.20;;;;;;5033174;28;20489;-73
2022/12/28 10:25:20;;;;;;;1.63;1.17;;;11.10;98.20;;;;;;5045940;28;21077;-76
2022/12/28 10:27:47;;;;;;;1.60;1.20;;;11.10;98.20;;;;;;5008436;28;20498;-78
2022/12/28 10:30:18;;;;;;;1.60;1.20;;;11.10;98.20;;;;;;5048581;28;20462;-74
2022/12/28 10:32:54;;;;;;;1.60;1.10;;;11.10;98.20;;;;;;5010845;28;20486;-76
2022/12/28 10:35:26;;;;;;;1.63;1.20;;;11.10;98.20;;;;;;5045079;28;20462;-74
2022/12/28 10:38:00;;;;;;;1.60;1.10;;;11.20;98.20;;;;;;5029973;28;20525;-76
2022/12/28 10:40:30;;;;;;;1.60;1.10;;;11.20;98.20;;;;;;5050143;28;20455;-75
2022/12/28 10:42:59;;;;;;;1.60;1.10;;;11.20;98.20;;;;;;5012722;28;20881;-78
2022/12/28 10:45:34;;;;;;;1.60;1.20;;;11.20;98.20;;;;;;5048920;28;20962;-77
2022/12/28 10:48:09;;;;;;;1.60;1.10;;;11.20;98.20;;;;;;5012309;28;20483;-77
2022/12/28 10:50:50;;;;;;;1.60;1.20;;;11.20;98.20;;;;;;5038583;28;20458;-76
2022/12/28 10:53:19;;;;;;;1.60;1.10;;;11.30;98.20;;;;;;5017205;28;20520;-75
2022/12/28 10:55:46;;;;;;;1.60;1.10;;;11.30;98.20;;;;;;5042811;28;20478;-72
2022/12/28 10:58:21;;;;;;;1.60;1.10;;;11.30;98.20;;;;;;5011903;28;20474;-75
2022/12/28 11:00:55;;;;;;;1.60;1.20;;;11.30;98.20;;;;;;5031275;28;20461;-75
2022/12/28 11:03:30;;;;;;;1.70;1.33;;;11.30;98.20;;;;;;5023540;28;20474;-75
2022/12/28 11:06:15;;;;;;;1.60;1.10;;;11.30;98.20;;;;;;5031775;28;20884;-73
2022/12/28 11:08:44;;;;;;;1.63;1.10;;;11.40;98.20;;;;;;5025952;28;21027;-74
2022/12/28 11:11:22;;;;;;;1.60;1.10;;;11.40;98.20;;;;;;5033636;28;20515;-75
2022/12/28 11:13:53;;;;;;;1.60;1.13;;;11.40;98.20;;;;;;5041143;28;20489;-75
2022/12/28 11:16:20;;;;;;;1.60;1.10;;;11.40;98.20;;;;;;5024599;28;20579;-73
2022/12/28 11:18:48;;;;;;;1.60;1.20;;;11.40;98.20;;;;;;5025296;28;20482;-74
2022/12/28 11:21:19;;;;;;;1.60;1.10;;;11.40;98.20;;;;;;5036188;28;20479;-76
2022/12/28 11:23:48;;;;;;;1.60;1.20;;;11.40;98.20;;;;;;5041139;28;20544;-75
2022/12/28 11:26:15;;;;;;;1.60;1.10;;;11.50;98.20;;;;;;5030260;28;20482;-75
2022/12/28 11:28:51;;;;;;;1.60;1.10;;;11.50;98.20;;;;;;5041844;28;20489;-76
2022/12/28 11:31:24;;;;;;;1.60;1.10;;;11.50;98.20;;;;;;5028340;28;20529;-76
2022/12/28 11:33:56;;;;;;;1.60;1.10;;;11.50;98.20;;;;;;5029179;28;20458;-75
2022/12/28 11:36:26;;;;;;;1.70;1.30;;;11.50;98.20;;;;;;5033519;28;20525;-75
2022/12/28 11:38:55;;;;;;;1.60;1.10;;;11.50;98.20;;;;;;5041204;28;20478;-72
2022/12/28 11:41:41;;;;;;;1.60;1.10;;;11.60;98.20;;;;;;5032397;28;20613;-74
2022/12/28 11:44:21;;;;;;;1.60;1.10;;;11.60;98.20;;;;;;5039689;28;20516;-74
2022/12/28 11:47:01;;;;;;;1.60;1.10;;;11.50;98.20;;;;;;5026561;28;20474;-74
2022/12/28 11:49:34;;;;;;;1.60;1.13;;;11.50;98.20;;;;;;5040093;28;20481;-74
2022/12/28 11:52:33;;;;;;;1.60;1.10;;;11.50;98.20;;;;;;5015742;28;20479;-74
2022/12/28 11:55:01;;;;;;;1.60;1.10;;;11.40;98.20;;;;;;5038965;28;20465;-74
2022/12/28 11:57:39;;;;;;;1.60;1.10;;;11.40;98.20;;;;;;5027917;28;20552;-72
2022/12/28 12:00:43;;;;;;;1.60;1.17;;;11.40;98.20;;;;;;5032119;28;20968;-76
2022/12/28 12:03:10;;;;;;;1.60;1.10;;;11.40;98.20;;;;;;5003910;28;20525;-73
2022/12/28 12:05:52;;;;;;;1.60;1.10;;;11.40;98.20;;;;;;5039220;28;20536;-74
2022/12/28 12:08:38;;;;;;;1.60;1.10;;;11.30;98.20;;;;;;5010502;28;20474;-76
2022/12/28 12:11:29;;;;;;;1.60;1.10;;;11.30;98.20;;;;;;5030232;28;20462;-75
2022/12/28 12:14:00;;;;;;;1.60;1.10;;;11.30;98.20;;;;;;5023394;28;20458;-74
2022/12/28 12:16:33;;;;;;;1.87;1.67;;;11.30;98.20;;;;;;5021610;28;20487;-75
2022/12/28 12:19:02;;;;;;;1.60;1.10;;;11.30;98.20;;;;;;5026781;28;20474;-75
2022/12/28 12:21:34;;;;;;;1.60;1.10;;;11.20;98.20;;;;;;5023241;28;21368;-74
2022/12/28 12:24:17;;;;;;;1.67;1.20;;;11.20;98.20;;;;;;5026867;28;20472;-74
2022/12/28 12:26:49;;;;;;;2.23;2.03;;;11.20;98.20;;;;;;5017201;28;21000;-75
2022/12/28 12:29:19;;;;;;;1.60;1.20;;;11.20;98.20;;;;;;5031566;28;20486;-76
2022/12/28 12:31:50;;;;;;;1.60;1.10;;;11.20;98.20;;;;;;5029705;28;20568;-76
2022/12/28 12:34:24;;;;;;;1.60;1.10;;;11.20;98.20;;;;;;5039423;28;20454;-73
2022/12/28 12:37:22;;;;;;;1.60;1.20;;;11.20;98.20;;;;;;5029211;28;20486;-75
2022/12/28 12:40:15;;;;;;;1.60;1.17;;;11.10;98.20;;;;;;5041291;28;20462;-76
2022/12/28 12:42:56;;;;;;;1.60;1.10;;;11.10;98.20;;;;;;5006243;28;20864;-74
2022/12/28 12:45:46;;;;;;;1.60;1.10;;;11.10;98.20;;;;;;5037570;28;20454;-72
2022/12/28 12:48:29;;;;;;;1.60;1.17;;;11.10;98.20;;;;;;5000736;28;20478;-74
2022/12/28 12:51:08;;;;;;;1.60;1.20;;;11.10;98.20;;;;;;5021780;28;21360;-76
2022/12/28 12:53:57;;;;;;;1.60;1.10;;;11.00;98.20;;;;;;5022885;28;20550;-74
2022/12/28 12:56:36;;;;;;;1.60;1.00;;;11.00;98.20;;;;;;5029178;28;21759;-77
2022/12/28 12:59:22;;;;;;;1.60;1.13;;;11.00;98.20;;;;;;5035946;28;20568;-75
2022/12/28 13:01:55;;;;;;;1.60;1.10;;;11.00;98.20;;;;;;5013442;28;20479;-75
2022/12/28 13:04:24;;;;;;;1.60;1.20;;;11.00;98.20;;;;;;5022987;28;20953;-76
2022/12/28 13:06:55;;;;;;;1.60;1.10;;;11.00;98.20;;;;;;5020624;28;20500;-75
2022/12/28 13:09:26;;;;;;;9.73;2.33;;;11.00;98.20;;;;;;5036714;28;20912;-77
2022/12/28 13:11:53;;;;;;;1.60;1.10;;;10.90;98.20;;;;;;5023557;28;20482;-76
2022/12/28 13:14:24;;;;;;;1.60;1.10;;;10.90;98.20;;;;;;5033488;28;20463;-75
2022/12/28 13:16:53;;;;;;;1.60;1.10;;;10.90;98.20;;;;;;5022156;28;20498;-75
2022/12/28 13:19:23;;;;;;;1.60;1.10;;;10.90;98.20;;;;;;5032458;28;20486;-75
2022/12/28 13:21:51;;;;;;;1.63;1.20;;;10.90;98.20;;;;;;5025485;28;20516;-75
2022/12/28 13:24:26;;;;;;;1.60;1.10;;;10.90;98.20;;;;;;5037324;28;20466;-78
2022/12/28 13:26:54;;;;;;;1.60;1.10;;;10.90;98.20;;;;;;5013044;28;20908;-77
2022/12/28 13:29:22;;;;;;;1.60;1.20;;;10.90;98.20;;;;;;5024185;28;20495;-77
2022/12/28 13:31:50;;;;;;;1.60;1.10;;;10.90;98.20;;;;;;5013166;28;20561;-76
2022/12/28 13:34:19;;;;;;;1.60;1.20;;;10.90;98.20;;;;;;5026696;28;20459;-75
2022/12/28 13:36:53;;;;;;;1.60;1.10;;;10.90;98.20;;;;;;5014776;28;20482;-75